Time;durP1;ratioP1;P1;durP2;ratioP2;P2;SDS_P1;SDS_P2;PMS_P1;PMS_P2;Temp;Humidity;BMP_temperature;BMP_pressure;BME280_temperature;BME280_humidity;BME280_pressure;Samples;Min_cycle;Max_cycle;Signal;HPM_P1;HPM_P2
2021/06/23 00:01:43;;;;;;;3.45;2.35;;;;;;;;;;5106120;28;20102;-47
2021/06/23 00:04:09;;;;;;;8.57;3.42;;;;;;;;;;5106853;28;20028;-48
2021/06/23 00:06:35;;;;;;;3.80;2.40;;;;;;;;;;5105494;28;20465;-46
2021/06/23 00:09:01;;;;;;;2.63;2.17;;;;;;;;;;5112286;28;20024;-47
2021/06/23 00:11:31;;;;;;;4.38;2.85;;;;;;;;;;5111154;28;20048;-48
2021/06/23 00:13:57;;;;;;;4.75;2.65;;;;;;;;;;5104625;28;20023;-47
2021/06/23 00:16:23;;;;;;;3.63;2.40;;;;;;;;;;5091654;28;20544;-46
2021/06/23 00:18:49;;;;;;;3.72;2.35;;;;;;;;;;5106408;28;20024;-48
2021/06/23 00:21:15;;;;;;;8.05;2.85;;;;;;;;;;5110579;28;20031;-47
2021/06/23 00:23:41;;;;;;;3.83;2.60;;;;;;;;;;5108161;28;20034;-47
2021/06/23 00:26:07;;;;;;;8.90;2.30;;;;;;;;;;5112115;28;20027;-47
2021/06/23 00:28:33;;;;;;;5.25;2.70;;;;;;;;;;5105789;28;20063;-46
2021/06/23 00:30:59;;;;;;;5.72;2.70;;;;;;;;;;5105978;28;20044;-47
2021/06/23 00:33:29;;;;;;;4.22;2.72;;;;;;;;;;5099062;28;20036;-46
2021/06/23 00:35:55;;;;;;;3.65;2.80;;;;;;;;;;5107879;28;20474;-47
2021/06/23 00:38:21;;;;;;;4.53;3.10;;;;;;;;;;5109673;28;20028;-46
2021/06/23 00:40:47;;;;;;;6.07;2.70;;;;;;;;;;5103013;28;20024;-46
2021/06/23 00:43:14;;;;;;;7.38;2.67;;;;;;;;;;5105328;28;20430;-47
2021/06/23 00:45:40;;;;;;;3.78;2.70;;;;;;;;;;5105647;28;20086;-47
2021/06/23 00:48:08;;;;;;;4.10;2.75;;;;;;;;;;5114590;28;20023;-47
2021/06/23 00:50:35;;;;;;;4.50;3.03;;;;;;;;;;5113341;28;20077;-48
2021/06/23 00:53:01;;;;;;;14.20;3.67;;;;;;;;;;5109963;28;20032;-47
2021/06/23 00:55:28;;;;;;;4.82;2.60;;;;;;;;;;5106481;28;20356;-47
2021/06/23 00:57:55;;;;;;;4.85;2.78;;;;;;;;;;5113316;28;20028;-48
2021/06/23 01:00:23;;;;;;;5.75;3.25;;;;;;;;;;5108789;28;20027;-47
2021/06/23 01:02:50;;;;;;;6.05;3.13;;;;;;;;;;5110166;28;20024;-47
2021/06/23 01:05:16;;;;;;;3.55;2.58;;;;;;;;;;5107511;28;20447;-46
2021/06/23 01:07:43;;;;;;;4.70;2.53;;;;;;;;;;5097127;28;20024;-46
2021/06/23 01:10:09;;;;;;;3.40;2.53;;;;;;;;;;5115184;28;20098;-46
2021/06/23 01:12:47;;;;;;;5.38;2.53;;;;;;;;;;5086497;28;20031;-47
2021/06/23 01:15:14;;;;;;;5.05;2.95;;;;;;;;;;5096166;28;20032;-47
2021/06/23 01:17:40;;;;;;;7.50;2.60;;;;;;;;;;5109633;28;20023;-46
2021/06/23 01:20:10;;;;;;;5.78;2.70;;;;;;;;;;5099884;28;20142;-46
2021/06/23 01:22:38;;;;;;;4.78;2.78;;;;;;;;;;5095542;28;20097;-48
2021/06/23 01:25:05;;;;;;;3.70;2.92;;;;;;;;;;5111343;28;20031;-47
2021/06/23 01:27:31;;;;;;;7.85;3.17;;;;;;;;;;5111120;28;20097;-46
2021/06/23 01:29:58;;;;;;;4.05;2.90;;;;;;;;;;5113521;28;20027;-46
2021/06/23 01:32:24;;;;;;;2.65;2.28;;;;;;;;;;5113793;28;20102;-49
2021/06/23 01:34:50;;;;;;;5.10;2.75;;;;;;;;;;5106655;28;20107;-46
2021/06/23 01:37:16;;;;;;;3.28;2.53;;;;;;;;;;5110619;28;20016;-47
2021/06/23 01:39:42;;;;;;;5.28;3.30;;;;;;;;;;5106927;28;20051;-47
2021/06/23 01:42:08;;;;;;;3.60;2.53;;;;;;;;;;5101863;28;20047;-46
2021/06/23 01:44:34;;;;;;;6.20;2.75;;;;;;;;;;5100971;28;20036;-46
2021/06/23 01:47:02;;;;;;;5.60;3.47;;;;;;;;;;5095383;28;20023;-46
2021/06/23 01:49:28;;;;;;;5.88;3.08;;;;;;;;;;5103265;28;20189;-47
2021/06/23 01:51:54;;;;;;;6.40;3.03;;;;;;;;;;5108424;28;20024;-47
2021/06/23 01:54:20;;;;;;;4.60;3.10;;;;;;;;;;5107414;28;20030;-47
2021/06/23 01:56:47;;;;;;;4.35;3.05;;;;;;;;;;5108579;28;20094;-47
2021/06/23 01:59:13;;;;;;;6.05;2.97;;;;;;;;;;5109411;28;20092;-48
2021/06/23 02:01:50;;;;;;;8.93;3.95;;;;;;;;;;5107573;28;20493;-48
2021/06/23 02:04:34;;;;;;;4.60;2.75;;;;;;;;;;5110415;28;20028;-46
2021/06/23 02:07:19;;;;;;;4.20;2.88;;;;;;;;;;5113751;28;20024;-46
2021/06/23 02:10:04;;;;;;;5.90;3.28;;;;;;;;;;5114104;28;20036;-46
2021/06/23 02:12:30;;;;;;;5.82;2.80;;;;;;;;;;5113892;28;20042;-46
2021/06/23 02:14:57;;;;;;;7.15;2.83;;;;;;;;;;5101669;28;20032;-46
2021/06/23 02:17:23;;;;;;;5.07;2.88;;;;;;;;;;5098824;28;20154;-46
2021/06/23 02:19:51;;;;;;;4.65;3.15;;;;;;;;;;5110479;28;20080;-46
2021/06/23 02:22:24;;;;;;;5.28;3.40;;;;;;;;;;5093768;28;20102;-46
2021/06/23 02:24:55;;;;;;;6.18;2.83;;;;;;;;;;5109751;28;20031;-47
2021/06/23 02:27:23;;;;;;;5.65;3.03;;;;;;;;;;5109705;28;20024;-47
2021/06/23 02:29:49;;;;;;;6.72;2.83;;;;;;;;;;5107567;28;20034;-47
2021/06/23 02:32:20;;;;;;;6.10;3.10;;;;;;;;;;5112221;28;20035;-46
2021/06/23 02:34:51;;;;;;;4.78;2.85;;;;;;;;;;5111202;28;20107;-47
2021/06/23 02:37:17;;;;;;;7.55;3.10;;;;;;;;;;5110929;28;20062;-46
2021/06/23 02:39:43;;;;;;;5.88;2.92;;;;;;;;;;5108250;28;20105;-46
2021/06/23 02:42:10;;;;;;;7.20;3.08;;;;;;;;;;5108132;28;20024;-46
2021/06/23 02:44:36;;;;;;;4.78;3.20;;;;;;;;;;5111078;28;20028;-46
2021/06/23 02:47:03;;;;;;;6.05;3.20;;;;;;;;;;5108035;28;20059;-47
2021/06/23 02:49:29;;;;;;;4.30;2.80;;;;;;;;;;5104348;28;20114;-46
2021/06/23 02:51:56;;;;;;;8.70;4.25;;;;;;;;;;5100144;28;20155;-46
2021/06/23 02:54:22;;;;;;;6.13;3.22;;;;;;;;;;5099270;28;20038;-46
2021/06/23 02:56:49;;;;;;;3.67;2.92;;;;;;;;;;5092121;28;20118;-46
2021/06/23 02:59:15;;;;;;;5.13;3.17;;;;;;;;;;5107972;28;20031;-46
2021/06/23 03:01:41;;;;;;;3.55;2.80;;;;;;;;;;5100568;28;20028;-47
2021/06/23 03:04:08;;;;;;;4.60;2.70;;;;;;;;;;5106036;28;20023;-46
2021/06/23 03:06:33;;;;;;;5.72;2.92;;;;;;;;;;5107730;28;20452;-46
2021/06/23 03:08:59;;;;;;;5.43;3.10;;;;;;;;;;5097146;28;20039;-47
2021/06/23 03:11:31;;;;;;;7.07;3.05;;;;;;;;;;5106053;28;20031;-47
2021/06/23 03:13:57;;;;;;;8.48;2.95;;;;;;;;;;5103732;28;20107;-46
2021/06/23 03:16:23;;;;;;;4.20;3.15;;;;;;;;;;5109311;28;20028;-47
2021/06/23 03:18:49;;;;;;;6.15;3.10;;;;;;;;;;5108669;28;20023;-47
2021/06/23 03:21:15;;;;;;;7.55;3.25;;;;;;;;;;5097018;28;20078;-46
2021/06/23 03:23:45;;;;;;;5.85;3.35;;;;;;;;;;5110581;28;20027;-46
2021/06/23 03:26:11;;;;;;;6.10;3.42;;;;;;;;;;5101474;28;20024;-46
2021/06/23 03:28:38;;;;;;;6.05;2.97;;;;;;;;;;5107642;28;20042;-47
2021/06/23 03:31:04;;;;;;;6.32;3.20;;;;;;;;;;5102442;28;20143;-46
2021/06/23 03:33:30;;;;;;;7.10;3.70;;;;;;;;;;5106854;28;20084;-46
2021/06/23 03:35:56;;;;;;;5.35;2.95;;;;;;;;;;5101369;28;20038;-47
2021/06/23 03:38:23;;;;;;;7.93;3.30;;;;;;;;;;5078770;28;20428;-46
2021/06/23 03:40:49;;;;;;;4.95;3.30;;;;;;;;;;5077162;28;20032;-47
2021/06/23 03:43:17;;;;;;;4.93;3.08;;;;;;;;;;5091685;28;20035;-46
2021/06/23 03:45:43;;;;;;;5.85;3.47;;;;;;;;;;5085160;28;20115;-47
2021/06/23 03:48:09;;;;;;;4.70;3.15;;;;;;;;;;5085319;28;20028;-46
2021/06/23 03:50:35;;;;;;;4.72;3.15;;;;;;;;;;5075344;28;20753;-46
2021/06/23 03:53:01;;;;;;;6.22;3.15;;;;;;;;;;5083075;28;20455;-46
2021/06/23 03:55:27;;;;;;;6.20;3.20;;;;;;;;;;5087450;28;20391;-46
2021/06/23 03:57:54;;;;;;;4.50;3.00;;;;;;;;;;5087062;28;20024;-46
2021/06/23 04:00:22;;;;;;;5.35;3.10;;;;;;;;;;5082602;28;20020;-46
2021/06/23 04:02:48;;;;;;;4.88;3.60;;;;;;;;;;5086135;28;20074;-46
2021/06/23 04:05:14;;;;;;;4.43;3.15;;;;;;;;;;5065314;28;20056;-47
2021/06/23 04:07:41;;;;;;;7.95;3.65;;;;;;;;;;5089182;28;20073;-46
2021/06/23 04:10:07;;;;;;;6.88;3.17;;;;;;;;;;5091283;28;20028;-47
2021/06/23 04:12:33;;;;;;;7.20;3.65;;;;;;;;;;5090623;28;20054;-46
2021/06/23 04:14:59;;;;;;;7.18;3.58;;;;;;;;;;5090121;28;20028;-46
2021/06/23 04:17:25;;;;;;;7.60;3.28;;;;;;;;;;5090995;28;20111;-48
2021/06/23 04:19:51;;;;;;;8.65;4.03;;;;;;;;;;5087048;28;20107;-47
2021/06/23 04:22:17;;;;;;;8.10;4.00;;;;;;;;;;5091129;28;20036;-48
2021/06/23 04:24:44;;;;;;;6.88;3.58;;;;;;;;;;5090913;28;20194;-48
2021/06/23 04:27:12;;;;;;;10.00;4.05;;;;;;;;;;5094262;28;20382;-46
2021/06/23 04:29:38;;;;;;;6.57;4.35;;;;;;;;;;5092380;28;20052;-46
2021/06/23 04:32:05;;;;;;;8.05;4.30;;;;;;;;;;5088553;28;20781;-47
2021/06/23 04:34:31;;;;;;;9.23;4.20;;;;;;;;;;5092462;28;20105;-47
2021/06/23 04:36:57;;;;;;;9.43;4.53;;;;;;;;;;5091319;28;20056;-48
2021/06/23 04:39:23;;;;;;;11.98;5.05;;;;;;;;;;5094747;28;20020;-47
2021/06/23 04:41:48;;;;;;;5.53;3.78;;;;;;;;;;5084877;28;20029;-47
2021/06/23 04:44:14;;;;;;;9.63;4.40;;;;;;;;;;5081623;28;20082;-48
2021/06/23 04:46:40;;;;;;;6.82;4.30;;;;;;;;;;5079169;28;20035;-46
2021/06/23 04:49:06;;;;;;;9.55;4.03;;;;;;;;;;5094332;28;20035;-46
2021/06/23 04:51:32;;;;;;;7.10;4.07;;;;;;;;;;5091618;28;20038;-47
2021/06/23 04:53:58;;;;;;;11.25;4.43;;;;;;;;;;5091640;28;20032;-46
2021/06/23 04:56:24;;;;;;;5.95;4.25;;;;;;;;;;5086077;28;20577;-47
2021/06/23 04:58:50;;;;;;;6.18;3.92;;;;;;;;;;5091396;28;20410;-46
2021/06/23 05:01:16;;;;;;;11.73;4.75;;;;;;;;;;5093709;28;20024;-47
2021/06/23 05:03:42;;;;;;;9.48;4.93;;;;;;;;;;5086457;28;20035;-46
2021/06/23 05:06:08;;;;;;;7.97;4.20;;;;;;;;;;5088796;28;20039;-47
2021/06/23 05:08:34;;;;;;;7.68;3.90;;;;;;;;;;5092599;28;20471;-46
2021/06/23 05:11:00;;;;;;;6.07;4.10;;;;;;;;;;5078169;28;20032;-46
2021/06/23 05:13:26;;;;;;;16.27;4.90;;;;;;;;;;5085139;28;20392;-47
2021/06/23 05:15:55;;;;;;;8.75;4.38;;;;;;;;;;5089064;28;20483;-46
2021/06/23 05:18:21;;;;;;;7.22;3.92;;;;;;;;;;5092151;28;20024;-47
2021/06/23 05:20:47;;;;;;;10.30;4.72;;;;;;;;;;5092594;28;20119;-47
2021/06/23 05:23:13;;;;;;;9.73;4.40;;;;;;;;;;5083854;28;20081;-47
2021/06/23 05:25:39;;;;;;;14.98;4.70;;;;;;;;;;5087640;28;20467;-47
2021/06/23 05:28:05;;;;;;;9.10;4.38;;;;;;;;;;5086000;28;20024;-47
2021/06/23 05:30:31;;;;;;;8.25;3.70;;;;;;;;;;5086050;28;20065;-47
2021/06/23 05:32:57;;;;;;;13.13;3.92;;;;;;;;;;5089730;28;20056;-47
2021/06/23 05:35:23;;;;;;;8.50;3.58;;;;;;;;;;5092896;28;20040;-47
2021/06/23 05:37:49;;;;;;;13.40;3.58;;;;;;;;;;5079004;28;20035;-47
2021/06/23 05:40:15;;;;;;;7.10;3.70;;;;;;;;;;5083899;28;20009;-46
2021/06/23 05:42:42;;;;;;;6.55;3.55;;;;;;;;;;5079959;28;20533;-47
2021/06/23 05:45:09;;;;;;;11.27;4.68;;;;;;;;;;5093706;28;20039;-46
2021/06/23 05:47:35;;;;;;;10.32;4.13;;;;;;;;;;5094419;28;20035;-47
2021/06/23 05:50:02;;;;;;;16.67;3.67;;;;;;;;;;5081612;28;20056;-47
2021/06/23 05:52:29;;;;;;;11.27;4.25;;;;;;;;;;5080395;28;20028;-47
2021/06/23 05:54:55;;;;;;;9.85;3.65;;;;;;;;;;5087596;28;20170;-47
2021/06/23 05:57:21;;;;;;;9.07;3.58;;;;;;;;;;5093882;28;20028;-47
2021/06/23 05:59:47;;;;;;;9.77;3.67;;;;;;;;;;5093848;28;20111;-48
2021/06/23 06:02:13;;;;;;;8.55;3.58;;;;;;;;;;5082203;28;20048;-47
2021/06/23 06:04:39;;;;;;;9.88;3.70;;;;;;;;;;5079798;28;20040;-47
2021/06/23 06:07:05;;;;;;;9.35;3.70;;;;;;;;;;5092441;28;20032;-47
2021/06/23 06:09:31;;;;;;;10.45;3.85;;;;;;;;;;5079389;28;20047;-48
2021/06/23 06:11:57;;;;;;;10.65;3.22;;;;;;;;;;5061326;28;20380;-48
2021/06/23 06:14:23;;;;;;;11.57;3.85;;;;;;;;;;5080981;28;20036;-48
2021/06/23 06:16:49;;;;;;;7.68;3.35;;;;;;;;;;5081952;28;20484;-46
2021/06/23 06:19:15;;;;;;;8.10;3.05;;;;;;;;;;5090700;28;20035;-48
2021/06/23 06:21:41;;;;;;;7.72;3.60;;;;;;;;;;5083817;28;20028;-47
2021/06/23 06:24:07;;;;;;;8.43;3.05;;;;;;;;;;5089338;28;20035;-46
2021/06/23 06:26:33;;;;;;;11.23;3.35;;;;;;;;;;5080561;28;20025;-47
2021/06/23 06:28:59;;;;;;;7.78;3.00;;;;;;;;;;5073381;28;20549;-47
2021/06/23 06:31:25;;;;;;;8.50;3.05;;;;;;;;;;5092550;28;20093;-47
2021/06/23 06:33:51;;;;;;;9.02;3.40;;;;;;;;;;5092492;28;20699;-47
2021/06/23 06:36:18;;;;;;;14.45;4.00;;;;;;;;;;5084643;28;20020;-46
2021/06/23 06:38:44;;;;;;;13.77;3.25;;;;;;;;;;5091028;28;20081;-47
2021/06/23 06:41:10;;;;;;;10.65;3.03;;;;;;;;;;5081334;28;20032;-47
2021/06/23 06:43:36;;;;;;;11.00;3.20;;;;;;;;;;5085165;28;20129;-47
2021/06/23 06:46:02;;;;;;;13.02;3.20;;;;;;;;;;5088953;28;20403;-47
2021/06/23 06:48:28;;;;;;;11.02;2.83;;;;;;;;;;5081190;28;20093;-48
2021/06/23 06:50:54;;;;;;;9.15;3.50;;;;;;;;;;5083103;28;20476;-46
2021/06/23 06:53:20;;;;;;;9.52;3.10;;;;;;;;;;5085639;28;20149;-47
2021/06/23 06:55:47;;;;;;;10.52;2.85;;;;;;;;;;5084618;28;20020;-47
2021/06/23 06:58:13;;;;;;;6.13;2.85;;;;;;;;;;5085104;28;20024;-46
2021/06/23 07:00:39;;;;;;;12.27;3.55;;;;;;;;;;5075338;28;20024;-48
2021/06/23 07:03:06;;;;;;;12.07;3.15;;;;;;;;;;5084262;28;20145;-46
2021/06/23 07:05:32;;;;;;;10.50;2.80;;;;;;;;;;5081110;28;20036;-47
2021/06/23 07:07:58;;;;;;;17.85;3.45;;;;;;;;;;5089601;28;20035;-46
2021/06/23 07:10:24;;;;;;;10.82;3.03;;;;;;;;;;5071267;28;20073;-47
2021/06/23 07:12:49;;;;;;;6.07;2.28;;;;;;;;;;5092802;28;20031;-47
2021/06/23 07:15:16;;;;;;;7.90;2.40;;;;;;;;;;5088629;28;20055;-47
2021/06/23 07:17:43;;;;;;;12.00;3.50;;;;;;;;;;5072599;28;20464;-47
2021/06/23 07:20:09;;;;;;;7.43;2.30;;;;;;;;;;5085882;28;20039;-46
2021/06/23 07:22:35;;;;;;;11.05;2.60;;;;;;;;;;5072672;28;20048;-47
2021/06/23 07:25:01;;;;;;;10.20;2.63;;;;;;;;;;5089744;28;20044;-46
2021/06/23 07:27:27;;;;;;;8.73;2.45;;;;;;;;;;5085102;28;20024;-48
2021/06/23 07:29:55;;;;;;;6.10;2.03;;;;;;;;;;5076399;28;20032;-47
2021/06/23 07:32:26;;;;;;;10.98;2.83;;;;;;;;;;5091187;28;20503;-47
2021/06/23 07:37:18;;;;;;;13.63;2.53;;;;;;;;;;5092340;28;20032;-47
2021/06/23 07:39:44;;;;;;;13.25;3.35;;;;;;;;;;5091903;28;20016;-47
2021/06/23 07:42:12;;;;;;;8.45;2.20;;;;;;;;;;5092554;28;20024;-47
2021/06/23 07:47:11;;;;;;;10.32;2.78;;;;;;;;;;5072061;28;20043;-47
2021/06/23 07:49:40;;;;;;;8.50;2.45;;;;;;;;;;5079232;28;20027;-47
2021/06/23 07:52:16;;;;;;;8.95;2.47;;;;;;;;;;5079822;28;20020;-47
2021/06/23 08:08:09;;;;;;;7.75;1.92;;;;;;;;;;5080777;28;20119;-47
2021/06/23 08:08:48;;;;;;;9.63;2.65;;;;;;;;;;5092303;28;20109;-46
2021/06/23 08:11:19;;;;;;;9.57;2.33;;;;;;;;;;5079029;28;20529;-47
2021/06/23 08:13:45;;;;;;;7.57;2.55;;;;;;;;;;5090263;28;20052;-46
2021/06/23 08:16:11;;;;;;;13.35;2.78;;;;;;;;;;5071625;28;20514;-47
2021/06/23 08:18:37;;;;;;;7.55;1.88;;;;;;;;;;5073607;28;20457;-46
2021/06/23 08:21:03;;;;;;;11.80;3.00;;;;;;;;;;5091898;28;20039;-47
2021/06/23 08:23:29;;;;;;;6.25;2.15;;;;;;;;;;5091968;28;20420;-47
2021/06/23 08:25:55;;;;;;;8.32;2.80;;;;;;;;;;5091303;28;20107;-47
2021/06/23 08:28:22;;;;;;;8.77;2.58;;;;;;;;;;5076856;28;20051;-47
2021/06/23 08:30:49;;;;;;;9.02;3.17;;;;;;;;;;5071657;28;20052;-48
2021/06/23 08:33:15;;;;;;;5.78;2.30;;;;;;;;;;5083564;28;20119;-47
2021/06/23 08:35:40;;;;;;;7.70;2.35;;;;;;;;;;5091380;28;20035;-48
2021/06/23 08:38:06;;;;;;;11.23;2.45;;;;;;;;;;5091750;28;20051;-47
2021/06/23 08:40:34;;;;;;;7.80;2.42;;;;;;;;;;5087272;28;20027;-47
2021/06/23 08:43:00;;;;;;;6.90;2.50;;;;;;;;;;5091535;28;20020;-47
2021/06/23 08:45:26;;;;;;;5.90;2.20;;;;;;;;;;5084078;28;20033;-49
2021/06/23 08:47:52;;;;;;;7.22;2.38;;;;;;;;;;5072490;28;20029;-47
2021/06/23 08:50:20;;;;;;;9.35;2.20;;;;;;;;;;5084403;28;20027;-47
2021/06/23 08:52:46;;;;;;;6.88;2.30;;;;;;;;;;5071496;28;20025;-47
2021/06/23 08:55:13;;;;;;;7.30;2.55;;;;;;;;;;5070724;28;20490;-47
2021/06/23 08:57:39;;;;;;;10.57;2.22;;;;;;;;;;5085868;28;20149;-47
2021/06/23 09:00:09;;;;;;;14.20;2.53;;;;;;;;;;5091703;28;20066;-47
2021/06/23 09:02:35;;;;;;;12.68;2.63;;;;;;;;;;5084064;28;20032;-47
2021/06/23 09:05:09;;;;;;;8.93;2.58;;;;;;;;;;5095026;28;20020;-49
2021/06/23 09:07:39;;;;;;;10.35;2.25;;;;;;;;;;5084302;28;20052;-48
2021/06/23 09:10:06;;;;;;;8.88;2.22;;;;;;;;;;5081673;28;20044;-51
2021/06/23 09:12:33;;;;;;;8.93;2.35;;;;;;;;;;5090197;28;20107;-47
2021/06/23 09:15:00;;;;;;;6.13;2.30;;;;;;;;;;5094016;28;20056;-47
2021/06/23 09:17:26;;;;;;;5.32;1.80;;;;;;;;;;5080810;28;20030;-50
2021/06/23 09:20:00;;;;;;;8.00;2.30;;;;;;;;;;5093759;28;20032;-47
2021/06/23 09:22:36;;;;;;;9.82;2.38;;;;;;;;;;5085165;28;20020;-49
2021/06/23 09:25:11;;;;;;;8.45;2.00;;;;;;;;;;5075690;28;20035;-48
2021/06/23 09:27:45;;;;;;;8.57;2.13;;;;;;;;;;5091419;28;20067;-47
2021/06/23 09:30:25;;;;;;;6.57;2.17;;;;;;;;;;5057230;28;20127;-47
2021/06/23 09:33:11;;;;;;;4.80;1.75;;;;;;;;;;5081310;28;20024;-49
2021/06/23 09:35:38;;;;;;;12.60;2.53;;;;;;;;;;5064191;28;20107;-47
2021/06/23 09:38:04;;;;;;;9.80;2.60;;;;;;;;;;5057534;28;20095;-47
2021/06/23 09:40:31;;;;;;;3.85;1.95;;;;;;;;;;5077610;28;20025;-47
2021/06/23 09:43:01;;;;;;;9.82;2.80;;;;;;;;;;5082919;28;20035;-47
2021/06/23 09:45:29;;;;;;;8.43;2.20;;;;;;;;;;5085415;28;20036;-48
2021/06/23 09:47:58;;;;;;;6.30;1.98;;;;;;;;;;5092668;28;20028;-47
2021/06/23 09:50:26;;;;;;;9.98;2.38;;;;;;;;;;5079897;28;20095;-47
2021/06/23 09:53:01;;;;;;;5.75;2.22;;;;;;;;;;5085267;28;20109;-47
2021/06/23 09:55:34;;;;;;;9.60;2.05;;;;;;;;;;5081638;28;20799;-47
2021/06/23 09:58:14;;;;;;;7.43;2.05;;;;;;;;;;5088533;28;20051;-47
2021/06/23 10:00:58;;;;;;;9.75;2.92;;;;;;;;;;5074449;28;20033;-47
2021/06/23 10:03:44;;;;;;;9.50;2.20;;;;;;;;;;5081016;28;20020;-48
2021/06/23 10:06:29;;;;;;;9.43;2.08;;;;;;;;;;5076722;28;20455;-48
2021/06/23 10:09:14;;;;;;;9.82;2.42;;;;;;;;;;5080477;28;20025;-47
2021/06/23 10:11:41;;;;;;;7.00;2.35;;;;;;;;;;5074030;28;20384;-47
2021/06/23 10:14:07;;;;;;;5.85;1.90;;;;;;;;;;5088580;28;20837;-47
2021/06/23 10:16:33;;;;;;;7.20;2.55;;;;;;;;;;5092213;28;20043;-49
2021/06/23 10:18:59;;;;;;;9.88;2.08;;;;;;;;;;5091701;28;20024;-47
2021/06/23 10:21:26;;;;;;;7.05;2.50;;;;;;;;;;5082520;28;20032;-47
2021/06/23 10:23:53;;;;;;;7.72;1.92;;;;;;;;;;5089146;28;20486;-47
2021/06/23 10:26:20;;;;;;;8.55;2.03;;;;;;;;;;5080004;28;20036;-47
2021/06/23 10:28:49;;;;;;;7.43;2.10;;;;;;;;;;5075185;28;20104;-47
2021/06/23 10:31:16;;;;;;;4.82;1.70;;;;;;;;;;5087791;28;20178;-47
2021/06/23 10:33:42;;;;;;;5.95;2.28;;;;;;;;;;5092778;28;20101;-47
2021/06/23 10:36:08;;;;;;;7.53;2.22;;;;;;;;;;5093084;28;20103;-47
2021/06/23 10:38:36;;;;;;;7.32;2.28;;;;;;;;;;5093585;28;20077;-47
2021/06/23 10:41:03;;;;;;;10.50;2.40;;;;;;;;;;5082263;28;20021;-47
2021/06/23 10:43:29;;;;;;;7.28;1.95;;;;;;;;;;5083949;28;20409;-47
2021/06/23 10:45:55;;;;;;;5.95;1.92;;;;;;;;;;5091455;28;20024;-49
2021/06/23 10:48:21;;;;;;;8.32;2.42;;;;;;;;;;5084252;28;20054;-48
2021/06/23 10:50:47;;;;;;;8.77;2.20;;;;;;;;;;5082692;28;20755;-47
2021/06/23 10:53:27;;;;;;;10.25;2.50;;;;;;;;;;5073199;28;20020;-47
2021/06/23 10:55:53;;;;;;;7.57;2.10;;;;;;;;;;5075619;28;20020;-48
2021/06/23 10:58:25;;;;;;;8.23;2.03;;;;;;;;;;5090750;28;20028;-47
2021/06/23 11:00:54;;;;;;;7.70;2.15;;;;;;;;;;5089876;28;20054;-49
2021/06/23 11:03:20;;;;;;;8.88;2.17;;;;;;;;;;5085314;28;20474;-48
2021/06/23 11:05:48;;;;;;;8.48;2.10;;;;;;;;;;5088452;28;20031;-47
2021/06/23 11:08:28;;;;;;;7.13;2.22;;;;;;;;;;5077899;28;20414;-46
2021/06/23 11:10:54;;;;;;;6.72;2.13;;;;;;;;;;5090269;28;20020;-47
2021/06/23 11:13:25;;;;;;;6.70;2.40;;;;;;;;;;5092598;28;20031;-47
2021/06/23 11:15:53;;;;;;;5.93;2.50;;;;;;;;;;5091221;28;20111;-47
2021/06/23 11:18:38;;;;;;;11.32;2.47;;;;;;;;;;5091757;28;20636;-47
2021/06/23 11:21:14;;;;;;;9.35;2.80;;;;;;;;;;5086827;28;20101;-48
2021/06/23 11:23:41;;;;;;;12.25;2.75;;;;;;;;;;5083489;28;20031;-48
2021/06/23 11:26:08;;;;;;;6.50;2.47;;;;;;;;;;5086548;28;20029;-47
2021/06/23 11:28:34;;;;;;;6.78;2.55;;;;;;;;;;5079068;28;20081;-47
2021/06/23 11:31:09;;;;;;;12.43;2.65;;;;;;;;;;5076209;28;20507;-47
2021/06/23 11:33:38;;;;;;;8.27;2.25;;;;;;;;;;5084961;28;20093;-46
2021/06/23 11:36:08;;;;;;;7.40;2.80;;;;;;;;;;5080491;28;20742;-47
2021/06/23 11:38:35;;;;;;;9.18;2.78;;;;;;;;;;5080967;28;20557;-48
2021/06/23 11:41:01;;;;;;;8.55;2.70;;;;;;;;;;5089860;28;20099;-47
2021/06/23 11:43:27;;;;;;;8.70;2.78;;;;;;;;;;5090917;28;20161;-47
2021/06/23 11:45:53;;;;;;;10.05;2.85;;;;;;;;;;5077092;28;20504;-47
2021/06/23 11:48:20;;;;;;;11.18;2.90;;;;;;;;;;5083952;28;20032;-47
2021/06/23 11:50:46;;;;;;;9.68;2.85;;;;;;;;;;5059732;28;20024;-47
2021/06/23 11:53:14;;;;;;;6.53;2.10;;;;;;;;;;5089025;28;20468;-49
2021/06/23 11:55:41;;;;;;;8.65;2.40;;;;;;;;;;5079060;28;20064;-47
2021/06/23 11:58:07;;;;;;;10.02;2.90;;;;;;;;;;5079123;28;20069;-47
2021/06/23 12:00:34;;;;;;;14.35;2.90;;;;;;;;;;5075871;28;20033;-49
2021/06/23 12:03:00;;;;;;;7.70;2.20;;;;;;;;;;5079155;28;20568;-47
2021/06/23 12:05:27;;;;;;;8.63;2.65;;;;;;;;;;5084939;28;20036;-47
2021/06/23 12:07:53;;;;;;;5.95;1.95;;;;;;;;;;5079857;28;20043;-49
2021/06/23 12:10:20;;;;;;;7.22;2.33;;;;;;;;;;5071630;28;20036;-47
2021/06/23 12:12:47;;;;;;;7.07;2.30;;;;;;;;;;5079500;28;20381;-48
2021/06/23 12:15:15;;;;;;;8.05;2.33;;;;;;;;;;5067697;28;20032;-47
2021/06/23 12:17:41;;;;;;;11.52;2.42;;;;;;;;;;5091858;28;20036;-47
2021/06/23 12:20:09;;;;;;;8.18;2.10;;;;;;;;;;5074576;28;20557;-47
2021/06/23 12:22:37;;;;;;;10.68;2.50;;;;;;;;;;5077668;28;20410;-47
2021/06/23 12:25:03;;;;;;;8.20;2.10;;;;;;;;;;5062731;28;20028;-47
2021/06/23 12:27:29;;;;;;;13.18;2.30;;;;;;;;;;5087167;28;20524;-47
2021/06/23 12:29:55;;;;;;;7.50;1.77;;;;;;;;;;5072160;28;20146;-47
2021/06/23 12:32:21;;;;;;;14.02;2.65;;;;;;;;;;5084202;28;20041;-49
2021/06/23 12:34:48;;;;;;;10.45;2.20;;;;;;;;;;5071791;28;20769;-47
2021/06/23 12:37:14;;;;;;;10.98;2.53;;;;;;;;;;5077986;28;20062;-47
2021/06/23 12:39:40;;;;;;;7.15;1.83;;;;;;;;;;5088928;28;20020;-47
2021/06/23 12:42:06;;;;;;;5.75;2.05;;;;;;;;;;5082401;28;20036;-47
2021/06/23 12:44:33;;;;;;;8.70;2.40;;;;;;;;;;5076885;28;20028;-47
2021/06/23 12:46:59;;;;;;;5.90;2.35;;;;;;;;;;5084086;28;20036;-47
2021/06/23 12:49:25;;;;;;;5.13;1.75;;;;;;;;;;5091457;28;20034;-47
2021/06/23 12:51:52;;;;;;;10.73;1.95;;;;;;;;;;5093185;28;20024;-47
2021/06/23 12:54:18;;;;;;;11.10;2.35;;;;;;;;;;5094993;28;20521;-47
2021/06/23 12:56:44;;;;;;;9.15;2.22;;;;;;;;;;5093440;28;20033;-47
2021/06/23 12:59:09;;;;;;;9.25;2.75;;;;;;;;;;5092751;28;20059;-47
2021/06/23 13:01:36;;;;;;;12.63;2.88;;;;;;;;;;5091477;28;20784;-47
2021/06/23 13:04:02;;;;;;;9.35;2.40;;;;;;;;;;5092225;28;20048;-48
2021/06/23 13:06:28;;;;;;;8.63;2.15;;;;;;;;;;5090680;28;20520;-48
2021/06/23 13:08:55;;;;;;;9.93;2.53;;;;;;;;;;5080334;28;20032;-47
2021/06/23 13:11:21;;;;;;;10.82;2.92;;;;;;;;;;5079853;28;20032;-47
2021/06/23 13:13:48;;;;;;;9.85;2.80;;;;;;;;;;5075194;28;20036;-48
2021/06/23 13:16:17;;;;;;;7.30;2.22;;;;;;;;;;5074948;28;20020;-47
2021/06/23 13:18:44;;;;;;;9.27;2.50;;;;;;;;;;5068614;28;20371;-47
2021/06/23 13:21:10;;;;;;;7.10;2.22;;;;;;;;;;5077736;28;20426;-48
2021/06/23 13:23:36;;;;;;;6.30;2.17;;;;;;;;;;5093422;28;20016;-47
2021/06/23 13:26:02;;;;;;;8.23;2.38;;;;;;;;;;5093125;28;20048;-47
2021/06/23 13:28:29;;;;;;;9.25;2.05;;;;;;;;;;5093986;28;20034;-47
2021/06/23 13:30:55;;;;;;;8.63;2.33;;;;;;;;;;5094406;28;20036;-47
2021/06/23 13:33:21;;;;;;;6.60;2.83;;;;;;;;;;5084162;28;20518;-48
2021/06/23 13:35:47;;;;;;;11.57;2.65;;;;;;;;;;5082278;28;20020;-47
2021/06/23 13:38:13;;;;;;;11.00;2.67;;;;;;;;;;5088315;28;20552;-47
2021/06/23 13:40:39;;;;;;;12.57;3.63;;;;;;;;;;5089576;28;20024;-48
2021/06/23 13:43:05;;;;;;;8.32;2.55;;;;;;;;;;5090703;28;20040;-46
2021/06/23 13:45:31;;;;;;;9.27;3.10;;;;;;;;;;5091286;28;20012;-47
2021/06/23 13:47:57;;;;;;;6.97;2.22;;;;;;;;;;5091251;28;20036;-47
2021/06/23 13:50:23;;;;;;;7.18;2.35;;;;;;;;;;5093055;28;20069;-47
2021/06/23 13:52:50;;;;;;;8.43;2.53;;;;;;;;;;5092239;28;20155;-48
2021/06/23 13:55:23;;;;;;;7.57;2.33;;;;;;;;;;5086647;28;20472;-47
2021/06/23 13:57:50;;;;;;;11.15;2.78;;;;;;;;;;5087493;28;20356;-47
2021/06/23 14:00:16;;;;;;;7.57;2.40;;;;;;;;;;5093808;28;20024;-47
2021/06/23 14:02:42;;;;;;;5.20;2.05;;;;;;;;;;5079163;28;20052;-48
2021/06/23 14:05:09;;;;;;;9.55;2.50;;;;;;;;;;5092842;28;20051;-48
2021/06/23 14:07:35;;;;;;;5.45;2.15;;;;;;;;;;5093145;28;20028;-48
2021/06/23 14:10:01;;;;;;;8.55;2.97;;;;;;;;;;5093667;28;20028;-47
2021/06/23 14:12:27;;;;;;;7.13;2.22;;;;;;;;;;5093471;28;20030;-47
2021/06/23 14:14:53;;;;;;;8.57;2.50;;;;;;;;;;5086933;28;20020;-48
2021/06/23 14:17:19;;;;;;;8.05;2.65;;;;;;;;;;5092440;28;20028;-47
2021/06/23 14:19:45;;;;;;;6.35;2.20;;;;;;;;;;5091635;28;20055;-47
2021/06/23 14:22:11;;;;;;;10.13;2.67;;;;;;;;;;5083137;28;20073;-47
2021/06/23 14:24:38;;;;;;;7.05;2.75;;;;;;;;;;5091633;28;20028;-48
2021/06/23 14:27:05;;;;;;;12.23;3.00;;;;;;;;;;5088086;28;20033;-48
2021/06/23 14:29:30;;;;;;;7.00;2.42;;;;;;;;;;5087824;28;20028;-47
2021/06/23 14:31:56;;;;;;;9.20;2.80;;;;;;;;;;5091888;28;20048;-47
2021/06/23 14:34:22;;;;;;;5.10;2.40;;;;;;;;;;5092726;28;20372;-47
2021/06/23 14:36:48;;;;;;;7.50;2.95;;;;;;;;;;5091315;28;20197;-47
2021/06/23 14:39:15;;;;;;;8.18;2.70;;;;;;;;;;5090994;28;20098;-47
2021/06/23 14:41:41;;;;;;;7.55;2.72;;;;;;;;;;5088470;28;20029;-47
2021/06/23 14:44:07;;;;;;;9.02;2.78;;;;;;;;;;5093051;28;20054;-48
2021/06/23 14:46:36;;;;;;;5.60;2.40;;;;;;;;;;5087470;28;20345;-48
2021/06/23 14:49:03;;;;;;;11.13;2.92;;;;;;;;;;5086751;28;20031;-47
2021/06/23 14:51:29;;;;;;;7.57;2.30;;;;;;;;;;5092176;28;20111;-49
2021/06/23 14:53:55;;;;;;;6.43;2.70;;;;;;;;;;5090809;28;20545;-47
2021/06/23 14:56:21;;;;;;;6.07;2.40;;;;;;;;;;5083167;28;20096;-47
2021/06/23 14:58:47;;;;;;;7.30;2.58;;;;;;;;;;5081977;28;20024;-47